createdAt,value
2018-07-24T00:01:46.208Z,17.40
2018-07-24T00:04:14.476Z,18.10
2018-07-24T00:06:42.744Z,18.83
2018-07-24T00:09:11.081Z,19.90
2018-07-24T00:11:39.361Z,19.40
2018-07-24T00:14:07.753Z,20.50
2018-07-24T00:16:36.019Z,19.40
2018-07-24T00:19:04.327Z,20.30
2018-07-24T00:21:32.616Z,18.33
2018-07-24T00:24:00.922Z,19.63
2018-07-24T00:26:29.298Z,19.57
2018-07-24T00:28:57.599Z,19.20
2018-07-24T00:31:25.939Z,18.87
2018-07-24T00:33:54.377Z,19.43
2018-07-24T00:36:22.632Z,17.77
2018-07-24T00:38:51.141Z,18.77
2018-07-24T00:41:19.404Z,18.67
2018-07-24T00:43:47.692Z,18.67
2018-07-24T00:46:15.952Z,17.40
2018-07-24T00:48:44.220Z,16.13
2018-07-24T00:51:12.480Z,17.40
2018-07-24T00:53:40.764Z,18.67
2018-07-24T00:56:09.109Z,18.57
2018-07-24T00:58:37.387Z,19.93
2018-07-24T01:01:05.691Z,20.47
2018-07-24T01:03:33.956Z,20.07
2018-07-24T01:06:02.236Z,19.97
2018-07-24T01:08:30.544Z,19.30
2018-07-24T01:10:58.523Z,21.27
2018-07-24T01:13:26.815Z,18.93
2018-07-24T01:15:55.104Z,20.00
2018-07-24T01:18:23.392Z,22.73
2018-07-24T01:20:51.668Z,22.00
2018-07-24T01:23:19.932Z,21.87
2018-07-24T01:25:48.192Z,21.73
2018-07-24T01:28:16.456Z,21.77
2018-07-24T01:30:44.721Z,19.67
2018-07-24T01:33:12.995Z,20.33
2018-07-24T01:35:41.260Z,19.70
2018-07-24T01:38:09.573Z,20.53
2018-07-24T01:40:37.831Z,21.80
2018-07-24T01:43:06.091Z,20.00
2018-07-24T01:45:34.380Z,21.37
2018-07-24T01:48:02.636Z,20.40
2018-07-24T01:50:30.924Z,19.97
2018-07-24T01:52:59.216Z,19.43
2018-07-24T01:55:27.202Z,18.60
2018-07-24T01:57:55.473Z,19.87
2018-07-24T02:00:23.728Z,18.27
2018-07-24T02:02:52.000Z,19.03
2018-07-24T02:05:20.449Z,20.03
2018-07-24T02:07:48.712Z,20.77
2018-07-24T02:10:17.012Z,20.17
2018-07-24T02:12:45.320Z,20.83
2018-07-24T02:15:13.632Z,21.80
2018-07-24T02:17:41.884Z,21.70
2018-07-24T02:20:10.169Z,20.47
2018-07-24T02:22:38.594Z,23.73
2018-07-24T02:25:06.870Z,21.20
2018-07-24T02:27:35.140Z,21.40
2018-07-24T02:30:03.469Z,20.27
2018-07-24T02:32:31.732Z,21.27
2018-07-24T02:34:59.725Z,20.67
2018-07-24T02:37:28.029Z,21.20
2018-07-24T02:39:56.323Z,24.17
2018-07-24T02:42:24.589Z,22.90
2018-07-24T02:44:52.872Z,22.37
2018-07-24T02:47:21.189Z,19.27
2018-07-24T02:49:49.531Z,18.00
2018-07-24T02:52:17.834Z,13.43
2018-07-24T02:54:46.121Z,17.93
2018-07-24T02:57:14.416Z,16.40
2018-07-24T02:59:42.665Z,18.33
2018-07-24T03:02:10.982Z,19.50
2018-07-24T03:04:39.250Z,20.77
2018-07-24T03:07:07.511Z,20.73
2018-07-24T03:09:35.785Z,21.80
2018-07-24T03:12:04.160Z,20.83
2018-07-24T03:14:32.214Z,19.70
2018-07-24T03:17:00.558Z,20.90
2018-07-24T03:19:28.882Z,19.97
2018-07-24T03:21:57.157Z,19.87
2018-07-24T03:24:25.450Z,23.90
2018-07-24T03:26:53.713Z,23.90
2018-07-24T03:29:22.170Z,23.00
2018-07-24T03:31:50.451Z,22.50
2018-07-24T03:34:18.713Z,23.50
2018-07-24T03:36:47.033Z,22.63
2018-07-24T03:39:15.325Z,22.13
2018-07-24T03:41:43.603Z,22.20
2018-07-24T03:44:11.930Z,22.27
2018-07-24T03:46:40.189Z,21.80
2018-07-24T03:49:08.460Z,22.53
2018-07-24T03:51:36.745Z,22.03
2018-07-24T03:54:05.121Z,22.97
2018-07-24T03:56:33.404Z,22.03
2018-07-24T03:59:01.669Z,22.27
2018-07-24T04:01:29.954Z,22.30
2018-07-24T04:03:58.237Z,22.07
2018-07-24T04:06:26.525Z,20.87
2018-07-24T04:08:54.801Z,22.23
2018-07-24T04:11:23.076Z,20.50
2018-07-24T04:13:51.366Z,22.07
2018-07-24T04:16:19.860Z,20.40
2018-07-24T04:18:49.165Z,21.50
2018-07-24T04:21:18.481Z,20.90
2018-07-24T04:23:47.568Z,20.73
2018-07-24T04:26:15.844Z,19.83
2018-07-24T04:28:45.073Z,20.63
2018-07-24T04:31:14.242Z,20.37
2018-07-24T04:33:43.184Z,19.37
2018-07-24T04:36:11.467Z,20.57
2018-07-24T04:38:39.748Z,19.67
2018-07-24T04:41:08.024Z,19.87
2018-07-24T04:43:36.292Z,19.27
2018-07-24T04:46:04.638Z,18.60
2018-07-24T04:48:33.228Z,19.23
2018-07-24T04:51:01.460Z,21.87
2018-07-24T04:53:29.740Z,20.53
2018-07-24T04:55:58.055Z,19.10
2018-07-24T04:58:26.328Z,19.73
2018-07-24T05:00:54.874Z,18.20
2018-07-24T05:03:23.223Z,19.33
2018-07-24T05:05:51.473Z,17.60
2018-07-24T05:08:19.841Z,18.73
2018-07-24T05:10:48.132Z,18.20
2018-07-24T05:13:16.481Z,17.93
2018-07-24T05:15:44.775Z,16.87
2018-07-24T05:18:13.044Z,18.57
2018-07-24T05:20:41.372Z,19.00
2018-07-24T05:23:09.635Z,17.57
2018-07-24T05:25:37.948Z,17.97
2018-07-24T05:28:06.172Z,19.70
2018-07-24T05:30:34.464Z,20.20
2018-07-24T05:33:02.726Z,19.57
2018-07-24T05:35:31.018Z,17.73
2018-07-24T05:37:59.276Z,17.83
2018-07-24T05:40:27.549Z,19.23
2018-07-24T05:42:55.988Z,17.90
2018-07-24T05:45:24.272Z,17.77
2018-07-24T05:47:52.619Z,19.17
2018-07-24T05:50:20.900Z,17.07
2018-07-24T05:52:49.186Z,16.97
2018-07-24T05:55:17.484Z,17.03
2018-07-24T05:57:45.956Z,16.63
2018-07-24T06:00:14.312Z,18.60
2018-07-24T06:02:42.589Z,16.77
2018-07-24T06:05:10.869Z,15.27
2018-07-24T06:07:39.163Z,18.60
2018-07-24T06:10:07.469Z,16.93
2018-07-24T06:12:35.762Z,17.90
2018-07-24T06:15:04.757Z,16.13
2018-07-24T06:17:33.021Z,17.07
2018-07-24T06:20:01.349Z,16.80
2018-07-24T06:22:29.670Z,16.83
2018-07-24T06:24:57.965Z,17.23
2018-07-24T06:27:26.265Z,16.80
2018-07-24T06:29:54.529Z,16.03
2018-07-24T06:32:22.828Z,16.27
2018-07-24T06:34:51.234Z,15.77
2018-07-24T06:37:19.513Z,15.30
2018-07-24T06:39:47.801Z,15.83
2018-07-24T06:42:16.053Z,14.90
2018-07-24T06:44:44.315Z,15.60
2018-07-24T06:47:12.661Z,14.53
2018-07-24T06:49:41.017Z,14.80
2018-07-24T06:52:09.296Z,14.63
2018-07-24T06:54:37.579Z,14.67
2018-07-24T06:57:05.866Z,15.23
2018-07-24T06:59:34.153Z,13.70
2018-07-24T07:02:02.423Z,15.27
2018-07-24T07:04:30.679Z,14.67
2018-07-24T07:06:58.937Z,14.37
2018-07-24T07:09:27.201Z,13.83
2018-07-24T07:11:55.475Z,14.10
2018-07-24T07:14:23.720Z,13.40
2018-07-24T07:16:51.987Z,14.23
2018-07-24T07:19:20.305Z,13.77
2018-07-24T07:21:48.584Z,13.00
2018-07-24T07:24:16.856Z,13.03
2018-07-24T07:26:45.140Z,13.33
2018-07-24T07:29:13.484Z,12.93
2018-07-24T07:31:41.373Z,13.77
2018-07-24T07:34:09.636Z,13.90
2018-07-24T07:36:37.648Z,13.40
2018-07-24T07:39:07.804Z,13.07
2018-07-24T07:41:36.060Z,13.30
2018-07-24T07:44:04.375Z,13.43
2018-07-24T07:46:32.625Z,12.80
2018-07-24T07:49:00.990Z,12.33
2018-07-24T07:51:29.378Z,12.13
2018-07-24T07:53:57.676Z,12.30
2018-07-24T07:56:25.963Z,12.37
2018-07-24T07:58:54.237Z,11.90
2018-07-24T08:01:22.507Z,10.63
2018-07-24T08:03:51.174Z,10.90
2018-07-24T08:06:19.496Z,11.03
2018-07-24T08:08:47.764Z,10.93
2018-07-24T08:11:16.066Z,10.83
2018-07-24T08:13:44.368Z,10.13
2018-07-24T08:16:12.639Z,10.67
2018-07-24T08:18:40.926Z,10.90
2018-07-24T08:21:09.255Z,10.40
2018-07-24T08:23:37.517Z,10.20
2018-07-24T08:26:05.848Z,9.93
2018-07-24T08:28:34.234Z,10.13
2018-07-24T08:31:02.513Z,9.30
2018-07-24T08:33:30.830Z,8.73
2018-07-24T08:35:59.189Z,8.80
2018-07-24T08:38:27.578Z,9.27
2018-07-24T08:40:55.880Z,8.83
2018-07-24T08:43:24.219Z,9.53
2018-07-24T08:45:52.512Z,9.60
2018-07-24T08:48:20.834Z,12.57
2018-07-24T08:50:49.167Z,8.33
2018-07-24T08:53:17.849Z,7.20
2018-07-24T08:55:46.191Z,8.10
2018-07-24T08:58:14.430Z,7.73
2018-07-24T09:00:42.810Z,8.20
2018-07-24T09:03:11.112Z,7.90
2018-07-24T09:05:39.338Z,9.33
2018-07-24T09:08:07.602Z,8.83
2018-07-24T09:10:35.861Z,8.53
2018-07-24T09:13:04.181Z,8.70
2018-07-24T09:15:32.492Z,8.93
2018-07-24T09:18:01.263Z,9.10
2018-07-24T09:20:29.573Z,7.97
2018-07-24T09:22:57.974Z,8.37
2018-07-24T09:25:26.255Z,8.33
2018-07-24T09:27:54.523Z,8.33
2018-07-24T09:30:22.805Z,8.80
2018-07-24T09:32:51.127Z,9.23
2018-07-24T09:35:19.424Z,10.10
2018-07-24T09:37:47.747Z,9.13
2018-07-24T09:40:16.030Z,9.20
2018-07-24T09:42:44.016Z,9.53
2018-07-24T09:45:12.311Z,9.07
2018-07-24T09:47:40.637Z,8.73
2018-07-24T09:50:09.130Z,8.77
2018-07-24T09:52:37.466Z,9.80
2018-07-24T09:55:05.773Z,9.50
2018-07-24T09:57:34.040Z,9.37
2018-07-24T10:00:02.344Z,9.00
2018-07-24T10:02:30.620Z,10.07
2018-07-24T10:04:58.675Z,8.97
2018-07-24T10:07:26.947Z,8.93
2018-07-24T10:09:55.305Z,9.13
2018-07-24T10:12:23.624Z,10.53
2018-07-24T10:14:51.635Z,9.67
2018-07-24T10:17:20.089Z,9.90
2018-07-24T10:19:48.545Z,12.27
2018-07-24T10:22:16.607Z,8.57
2018-07-24T10:24:44.945Z,8.77
2018-07-24T10:27:13.281Z,9.67
2018-07-24T10:29:41.577Z,9.03
2018-07-24T10:32:10.058Z,8.77
2018-07-24T10:34:38.404Z,8.60
2018-07-24T10:37:07.048Z,8.47
2018-07-24T10:39:35.402Z,9.03
2018-07-24T10:42:03.716Z,7.60
2018-07-24T10:44:31.992Z,8.93
2018-07-24T10:47:00.289Z,8.90
2018-07-24T10:49:28.590Z,8.53
2018-07-24T10:51:57.032Z,9.40
2018-07-24T10:54:25.470Z,9.00
2018-07-24T10:56:53.745Z,9.40
2018-07-24T10:59:22.010Z,8.60
2018-07-24T11:01:50.261Z,8.13
2018-07-24T11:04:18.522Z,8.07
2018-07-24T11:06:46.871Z,7.63
2018-07-24T11:09:15.276Z,7.50
2018-07-24T11:11:43.596Z,7.60
2018-07-24T11:14:12.015Z,7.80
2018-07-24T11:16:40.355Z,7.03
2018-07-24T11:19:08.632Z,6.43
2018-07-24T11:21:37.004Z,7.70
2018-07-24T11:24:05.398Z,7.43
2018-07-24T11:26:33.665Z,7.13
2018-07-24T11:29:01.972Z,6.90
2018-07-24T11:31:30.240Z,7.00
2018-07-24T11:33:58.618Z,8.83
2018-07-24T11:36:26.901Z,7.23
2018-07-24T11:38:55.263Z,7.00
2018-07-24T11:41:23.505Z,6.70
2018-07-24T11:43:51.764Z,6.80
2018-07-24T11:46:20.033Z,7.33
2018-07-24T11:48:48.319Z,7.20
2018-07-24T11:51:16.739Z,7.57
2018-07-24T11:53:45.049Z,7.37
2018-07-24T11:56:13.380Z,7.40
2018-07-24T11:58:41.719Z,7.03
2018-07-24T12:01:09.920Z,7.53
2018-07-24T12:03:38.297Z,6.47
2018-07-24T12:06:06.516Z,6.57
2018-07-24T12:08:34.772Z,7.60
2018-07-24T12:11:03.067Z,7.63
2018-07-24T12:13:31.320Z,7.47
2018-07-24T12:15:59.698Z,6.80
2018-07-24T12:18:27.953Z,6.90
2018-07-24T12:20:56.230Z,8.40
2018-07-24T12:23:24.574Z,6.87
2018-07-24T12:25:52.845Z,7.30
2018-07-24T12:28:21.101Z,7.13
2018-07-24T12:30:49.370Z,7.10
2018-07-24T12:33:17.637Z,6.60
2018-07-24T12:35:45.922Z,7.00
2018-07-24T12:38:14.173Z,7.40
2018-07-24T12:40:42.227Z,6.67
2018-07-24T12:43:10.481Z,6.57
2018-07-24T12:45:38.813Z,8.23
2018-07-24T12:48:07.055Z,7.53
2018-07-24T12:50:35.344Z,7.10
2018-07-24T12:53:03.608Z,9.27
2018-07-24T12:55:31.985Z,7.40
2018-07-24T12:58:00.348Z,7.00
2018-07-24T13:00:28.628Z,6.63
2018-07-24T13:02:56.980Z,7.37
2018-07-24T13:05:25.389Z,6.83
2018-07-24T13:07:53.629Z,7.40
2018-07-24T13:10:21.874Z,6.67
2018-07-24T13:12:50.176Z,7.50
2018-07-24T13:15:18.472Z,6.50
2018-07-24T13:17:46.752Z,6.47
2018-07-24T13:20:15.024Z,7.10
2018-07-24T13:22:43.325Z,6.87
2018-07-24T13:25:11.676Z,8.10
2018-07-24T13:27:39.984Z,7.20
2018-07-24T13:30:08.237Z,7.07
2018-07-24T13:32:37.629Z,6.53
2018-07-24T13:35:06.225Z,5.90
2018-07-24T13:37:34.504Z,6.10
2018-07-24T13:40:02.798Z,6.63
2018-07-24T13:42:31.190Z,12.90
2018-07-24T13:44:59.521Z,10.93
2018-07-24T13:47:27.756Z,7.03
2018-07-24T13:49:55.789Z,7.47
2018-07-24T13:52:24.058Z,7.00
2018-07-24T13:54:52.340Z,6.57
2018-07-24T13:57:20.724Z,5.90
2018-07-24T13:59:48.993Z,6.10
2018-07-24T14:02:17.412Z,6.43
2018-07-24T14:04:45.706Z,6.67
2018-07-24T14:07:13.685Z,6.00
2018-07-24T14:09:42.029Z,5.63
2018-07-24T14:12:16.762Z,5.77
2018-07-24T14:14:45.052Z,6.30
2018-07-24T14:17:13.299Z,6.50
2018-07-24T14:19:41.561Z,6.10
2018-07-24T14:22:09.892Z,6.33
2018-07-24T14:24:38.172Z,6.53
2018-07-24T14:27:06.484Z,6.67
2018-07-24T14:29:34.759Z,6.10
2018-07-24T14:32:03.086Z,6.90
2018-07-24T14:34:31.361Z,6.20
2018-07-24T14:36:59.661Z,6.13
2018-07-24T14:39:27.915Z,6.20
2018-07-24T14:41:56.171Z,7.73
2018-07-24T14:44:24.432Z,6.17
2018-07-24T14:46:52.688Z,5.47
2018-07-24T14:49:20.964Z,6.17
2018-07-24T14:51:49.437Z,6.60
2018-07-24T14:54:17.712Z,7.13
2018-07-24T14:56:45.994Z,6.43
2018-07-24T14:59:14.277Z,6.63
2018-07-24T15:01:42.582Z,6.03
2018-07-24T15:04:11.126Z,6.63
2018-07-24T15:06:39.491Z,5.80
2018-07-24T15:09:09.279Z,6.27
2018-07-24T15:11:37.604Z,8.27
2018-07-24T15:14:05.949Z,6.60
2018-07-24T15:16:34.212Z,6.00
2018-07-24T15:19:02.568Z,6.50
2018-07-24T15:21:31.077Z,6.50
2018-07-24T15:23:59.467Z,6.07
2018-07-24T15:26:27.768Z,8.00
2018-07-24T15:28:56.038Z,6.80
2018-07-24T15:31:24.394Z,7.20
2018-07-24T15:33:52.656Z,7.10
2018-07-24T15:36:20.968Z,6.70
2018-07-24T15:38:49.255Z,8.20
2018-07-24T15:41:17.544Z,6.73
2018-07-24T15:43:45.832Z,6.50
2018-07-24T15:46:14.092Z,6.37
2018-07-24T15:48:42.371Z,8.53
2018-07-24T15:51:10.677Z,6.33
2018-07-24T15:53:38.940Z,6.30
2018-07-24T15:56:07.304Z,6.67
2018-07-24T15:58:35.254Z,6.60
2018-07-24T16:01:03.624Z,6.57
2018-07-24T16:03:32.053Z,6.73
2018-07-24T16:06:00.337Z,6.70
2018-07-24T16:08:28.607Z,7.10
2018-07-24T16:10:56.887Z,6.67
2018-07-24T16:13:25.165Z,6.72
2018-07-24T16:15:53.510Z,6.85
2018-07-24T16:18:21.471Z,7.12
2018-07-24T16:20:49.935Z,7.10
2018-07-24T16:23:18.297Z,6.80
2018-07-24T16:25:46.576Z,6.58
2018-07-24T16:28:14.916Z,6.85
2018-07-24T16:30:43.280Z,6.55
2018-07-24T16:33:11.702Z,6.62
2018-07-24T16:35:40.019Z,7.17
2018-07-24T16:38:08.324Z,7.83
2018-07-24T16:40:36.600Z,6.62
2018-07-24T16:43:04.978Z,6.33
2018-07-24T16:45:33.328Z,6.60
2018-07-24T16:48:01.594Z,6.62
2018-07-24T16:50:29.933Z,7.22
2018-07-24T16:52:58.165Z,7.40
2018-07-24T16:55:26.428Z,7.08
2018-07-24T16:57:54.983Z,6.72
2018-07-24T17:00:23.220Z,7.30
2018-07-24T17:02:51.645Z,7.83
2018-07-24T17:05:19.998Z,7.65
2018-07-24T17:07:48.264Z,7.47
2018-07-24T17:10:16.564Z,7.60
2018-07-24T17:12:44.859Z,7.03
2018-07-24T17:15:13.188Z,6.67
2018-07-24T17:17:41.493Z,6.80
2018-07-24T17:20:09.790Z,7.67
2018-07-24T17:22:38.065Z,7.15
2018-07-24T17:25:06.360Z,7.35
2018-07-24T17:27:34.695Z,7.20
2018-07-24T17:30:02.988Z,7.08
2018-07-24T17:32:31.253Z,7.62
2018-07-24T17:34:59.528Z,7.58
2018-07-24T17:37:27.824Z,7.72
2018-07-24T17:39:56.107Z,7.97
2018-07-24T17:42:24.503Z,7.67
2018-07-24T17:44:52.772Z,7.78
2018-07-24T17:47:21.055Z,8.08
2018-07-24T17:49:49.331Z,7.95
2018-07-24T17:52:17.604Z,9.35
2018-07-24T17:54:45.868Z,7.45
2018-07-24T17:57:14.168Z,8.00
2018-07-24T17:59:42.476Z,8.28
2018-07-24T18:02:10.709Z,7.30
2018-07-24T18:04:39.016Z,7.08
2018-07-24T18:07:07.356Z,7.50
2018-07-24T18:09:35.617Z,7.20
2018-07-24T18:12:03.896Z,7.28
2018-07-24T18:14:32.159Z,7.70
2018-07-24T18:17:00.423Z,7.25
2018-07-24T18:19:28.696Z,9.30
2018-07-24T18:21:57.057Z,7.03
2018-07-24T18:24:25.341Z,6.97
2018-07-24T18:26:59.964Z,9.73
2018-07-24T18:29:28.258Z,7.20
2018-07-24T18:31:56.652Z,7.80
2018-07-24T18:34:24.936Z,8.00
2018-07-24T18:36:53.248Z,7.90
2018-07-24T18:39:21.507Z,11.30
2018-07-24T18:41:49.806Z,8.07
2018-07-24T18:44:18.064Z,8.30
2018-07-24T18:46:46.412Z,8.20
2018-07-24T18:49:14.626Z,9.10
2018-07-24T18:51:42.920Z,8.50
2018-07-24T18:54:11.245Z,8.87
2018-07-24T18:56:39.562Z,8.80
2018-07-24T18:59:08.099Z,9.50
2018-07-24T19:01:36.408Z,8.40
2018-07-24T19:04:04.680Z,8.70
2018-07-24T19:06:32.954Z,9.13
2018-07-24T19:09:01.232Z,8.97
2018-07-24T19:11:29.508Z,9.30
2018-07-24T19:13:57.770Z,10.53
2018-07-24T19:16:26.060Z,8.67
2018-07-24T19:18:54.353Z,9.23
2018-07-24T19:21:22.619Z,8.47
2018-07-24T19:23:50.895Z,8.73
2018-07-24T19:26:19.203Z,8.37
2018-07-24T19:28:47.488Z,9.67
2018-07-24T19:31:15.769Z,8.70
2018-07-24T19:33:44.024Z,9.33
2018-07-24T19:36:12.364Z,8.63
2018-07-24T19:38:40.649Z,9.03
2018-07-24T19:41:08.924Z,9.23
2018-07-24T19:43:37.184Z,8.60
2018-07-24T19:46:05.619Z,8.87
2018-07-24T19:48:33.892Z,11.03
2018-07-24T19:51:02.259Z,9.97
2018-07-24T19:53:30.528Z,9.57
2018-07-24T19:55:58.812Z,10.53
2018-07-24T19:58:27.088Z,10.73
2018-07-24T20:00:55.379Z,11.27
2018-07-24T20:03:23.644Z,10.73
2018-07-24T20:05:51.968Z,10.33
2018-07-24T20:08:20.201Z,10.30
2018-07-24T20:10:48.485Z,11.60
2018-07-24T20:13:16.811Z,11.40
2018-07-24T20:15:45.101Z,11.43
2018-07-24T20:18:13.402Z,10.70
2018-07-24T20:20:41.693Z,11.27
2018-07-24T20:23:10.039Z,11.27
2018-07-24T20:25:38.235Z,10.90
2018-07-24T20:28:06.529Z,11.47
2018-07-24T20:30:34.828Z,13.83
2018-07-24T20:33:03.099Z,11.53
2018-07-24T20:35:31.519Z,13.47
2018-07-24T20:37:59.707Z,12.47
2018-07-24T20:40:28.032Z,12.47
2018-07-24T20:42:56.377Z,13.33
2018-07-24T20:45:24.773Z,11.73
2018-07-24T20:47:53.036Z,11.70
2018-07-24T20:50:21.331Z,11.60
2018-07-24T20:52:49.555Z,12.20
2018-07-24T20:55:17.885Z,11.40
2018-07-24T20:57:46.155Z,11.93
2018-07-24T21:00:14.436Z,11.50
2018-07-24T21:02:43.564Z,12.63
2018-07-24T21:05:11.942Z,14.20
2018-07-24T21:07:40.247Z,12.13
2018-07-24T21:10:13.896Z,11.17
2018-07-24T21:12:41.923Z,12.70
2018-07-24T21:15:10.212Z,12.10
2018-07-24T21:17:38.631Z,13.30
2018-07-24T21:20:07.019Z,13.40
2018-07-24T21:22:35.321Z,12.80
2018-07-24T21:25:03.667Z,12.13
2018-07-24T21:27:32.026Z,12.87
2018-07-24T21:30:00.269Z,13.13
2018-07-24T21:32:28.577Z,12.90
2018-07-24T21:34:56.898Z,12.60
2018-07-24T21:37:25.191Z,13.30
2018-07-24T21:39:53.561Z,13.13
2018-07-24T21:42:21.924Z,14.73
2018-07-24T21:44:50.292Z,12.50
2018-07-24T21:47:18.592Z,12.70
2018-07-24T21:49:46.868Z,12.87
2018-07-24T21:52:15.242Z,13.13
2018-07-24T21:54:43.506Z,13.13
2018-07-24T21:57:11.833Z,13.30
2018-07-24T21:59:40.112Z,13.00
2018-07-24T22:02:08.432Z,13.37
2018-07-24T22:04:36.737Z,12.30
2018-07-24T22:07:05.046Z,12.43
2018-07-24T22:09:33.381Z,12.80
2018-07-24T22:12:01.656Z,12.80
2018-07-24T22:14:29.964Z,11.43
2018-07-24T22:16:58.457Z,10.93
2018-07-24T22:19:26.781Z,12.10
2018-07-24T22:21:55.100Z,11.63
2018-07-24T22:24:23.386Z,11.93
2018-07-24T22:26:58.224Z,12.80
2018-07-24T22:29:26.553Z,13.10
2018-07-24T22:31:54.956Z,12.87
2018-07-24T22:34:23.237Z,12.63
2018-07-24T22:36:51.510Z,13.40
2018-07-24T22:39:19.780Z,12.60
2018-07-24T22:41:48.053Z,13.13
2018-07-24T22:44:16.324Z,14.47
2018-07-24T22:46:44.622Z,13.47
2018-07-24T22:49:12.915Z,13.03
2018-07-24T22:51:41.222Z,13.20
2018-07-24T22:54:09.624Z,13.40
2018-07-24T22:56:37.934Z,14.17
2018-07-24T22:59:12.665Z,13.93
2018-07-24T23:01:40.992Z,14.17
2018-07-24T23:04:09.257Z,14.10
2018-07-24T23:06:37.597Z,14.03
2018-07-24T23:09:08.204Z,13.83
2018-07-24T23:11:36.476Z,14.77
2018-07-24T23:14:04.800Z,14.03
2018-07-24T23:16:33.092Z,14.03
2018-07-24T23:19:01.381Z,13.23
2018-07-24T23:21:29.651Z,13.40
2018-07-24T23:23:58.053Z,13.77
2018-07-24T23:26:26.382Z,13.40
2018-07-24T23:28:54.624Z,13.50
2018-07-24T23:31:22.886Z,15.07
2018-07-24T23:33:51.162Z,13.97
2018-07-24T23:36:19.456Z,14.23
2018-07-24T23:38:47.749Z,14.73
2018-07-24T23:41:16.037Z,15.07
2018-07-24T23:43:44.296Z,14.53
2018-07-24T23:46:12.570Z,14.20
2018-07-24T23:48:40.840Z,13.10
2018-07-24T23:51:09.125Z,14.23
2018-07-24T23:53:37.393Z,13.23
2018-07-24T23:56:05.679Z,13.73
2018-07-24T23:58:33.953Z,14.43
